sensor_id;sensor_type;location;lat;lon;timestamp;P1;durP1;ratioP1;P2;durP2;ratioP2
80567;SDS011;69922;45.656;25.586;2024-01-11T00:00:22;47.70;;;22.60;;
80567;SDS011;69922;45.656;25.586;2024-01-11T00:01:49;46.10;;;20.00;;
80567;SDS011;69922;45.656;25.586;2024-01-11T00:02:55;43.00;;;20.20;;
80567;SDS011;69922;45.656;25.586;2024-01-11T00:04:02;42.00;;;20.30;;
80567;SDS011;69922;45.656;25.586;2024-01-11T00:05:10;35.60;;;18.90;;
80567;SDS011;69922;45.656;25.586;2024-01-11T00:06:16;46.20;;;20.60;;
80567;SDS011;69922;45.656;25.586;2024-01-11T00:07:23;47.30;;;22.20;;
80567;SDS011;69922;45.656;25.586;2024-01-11T00:08:29;49.80;;;23.30;;
80567;SDS011;69922;45.656;25.586;2024-01-11T00:09:40;43.40;;;22.80;;
80567;SDS011;69922;45.656;25.586;2024-01-11T00:10:48;44.10;;;21.90;;
80567;SDS011;69922;45.656;25.586;2024-01-11T00:11:54;50.00;;;22.20;;
80567;SDS011;69922;45.656;25.586;2024-01-11T00:13:01;47.60;;;21.20;;
80567;SDS011;69922;45.656;25.586;2024-01-11T00:14:08;45.70;;;21.50;;
80567;SDS011;69922;45.656;25.586;2024-01-11T00:15:15;46.40;;;19.80;;
80567;SDS011;69922;45.656;25.586;2024-01-11T00:16:22;41.10;;;21.20;;
80567;SDS011;69922;45.656;25.586;2024-01-11T00:17:28;36.30;;;18.50;;
80567;SDS011;69922;45.656;25.586;2024-01-11T00:18:35;37.40;;;17.40;;
80567;SDS011;69922;45.656;25.586;2024-01-11T00:19:41;39.10;;;17.70;;
80567;SDS011;69922;45.656;25.586;2024-01-11T00:20:48;38.80;;;18.10;;
80567;SDS011;69922;45.656;25.586;2024-01-11T00:21:54;35.00;;;17.40;;
80567;SDS011;69922;45.656;25.586;2024-01-11T00:23:00;44.00;;;20.20;;
80567;SDS011;69922;45.656;25.586;2024-01-11T00:24:07;40.80;;;20.30;;
80567;SDS011;69922;45.656;25.586;2024-01-11T00:25:13;42.30;;;19.90;;
80567;SDS011;69922;45.656;25.586;2024-01-11T00:26:19;39.80;;;19.20;;
80567;SDS011;69922;45.656;25.586;2024-01-11T00:27:26;37.40;;;19.80;;
80567;SDS011;69922;45.656;25.586;2024-01-11T00:28:32;40.10;;;19.30;;
80567;SDS011;69922;45.656;25.586;2024-01-11T00:29:39;39.50;;;18.50;;
80567;SDS011;69922;45.656;25.586;2024-01-11T00:30:45;37.70;;;18.90;;
80567;SDS011;69922;45.656;25.586;2024-01-11T00:31:52;38.90;;;19.90;;
80567;SDS011;69922;45.656;25.586;2024-01-11T00:32:58;38.20;;;18.80;;
80567;SDS011;69922;45.656;25.586;2024-01-11T00:34:05;37.70;;;18.20;;
80567;SDS011;69922;45.656;25.586;2024-01-11T00:35:13;42.30;;;19.50;;
80567;SDS011;69922;45.656;25.586;2024-01-11T00:36:20;38.00;;;18.60;;
80567;SDS011;69922;45.656;25.586;2024-01-11T00:37:26;48.10;;;22.40;;
80567;SDS011;69922;45.656;25.586;2024-01-11T00:38:33;44.70;;;22.30;;
80567;SDS011;69922;45.656;25.586;2024-01-11T00:39:39;44.10;;;22.10;;
80567;SDS011;69922;45.656;25.586;2024-01-11T00:40:46;46.00;;;19.50;;
80567;SDS011;69922;45.656;25.586;2024-01-11T00:41:53;42.50;;;21.30;;
80567;SDS011;69922;45.656;25.586;2024-01-11T00:42:59;41.50;;;20.80;;
80567;SDS011;69922;45.656;25.586;2024-01-11T00:44:06;41.70;;;19.80;;
80567;SDS011;69922;45.656;25.586;2024-01-11T00:45:12;41.80;;;20.30;;
80567;SDS011;69922;45.656;25.586;2024-01-11T00:46:18;43.80;;;20.30;;
80567;SDS011;69922;45.656;25.586;2024-01-11T00:47:25;40.50;;;20.30;;
80567;SDS011;69922;45.656;25.586;2024-01-11T00:48:32;40.80;;;19.90;;
80567;SDS011;69922;45.656;25.586;2024-01-11T00:49:38;38.90;;;20.20;;
80567;SDS011;69922;45.656;25.586;2024-01-11T00:50:45;39.70;;;20.90;;
80567;SDS011;69922;45.656;25.586;2024-01-11T00:51:51;51.10;;;22.70;;
80567;SDS011;69922;45.656;25.586;2024-01-11T00:52:58;43.90;;;19.80;;
80567;SDS011;69922;45.656;25.586;2024-01-11T00:54:06;43.20;;;21.00;;
80567;SDS011;69922;45.656;25.586;2024-01-11T00:55:12;48.10;;;22.80;;
80567;SDS011;69922;45.656;25.586;2024-01-11T00:56:20;46.00;;;21.70;;
80567;SDS011;69922;45.656;25.586;2024-01-11T00:57:27;54.40;;;21.40;;
80567;SDS011;69922;45.656;25.586;2024-01-11T00:58:33;44.80;;;22.20;;
80567;SDS011;69922;45.656;25.586;2024-01-11T00:59:41;43.30;;;23.20;;
80567;SDS011;69922;45.656;25.586;2024-01-11T01:00:47;45.00;;;21.50;;
80567;SDS011;69922;45.656;25.586;2024-01-11T01:01:54;50.60;;;23.90;;
80567;SDS011;69922;45.656;25.586;2024-01-11T01:03:00;45.40;;;20.50;;
80567;SDS011;69922;45.656;25.586;2024-01-11T01:04:07;51.50;;;22.80;;
80567;SDS011;69922;45.656;25.586;2024-01-11T01:05:14;48.50;;;22.20;;
80567;SDS011;69922;45.656;25.586;2024-01-11T01:06:21;48.60;;;21.70;;
80567;SDS011;69922;45.656;25.586;2024-01-11T01:07:27;45.50;;;21.80;;
80567;SDS011;69922;45.656;25.586;2024-01-11T01:08:34;39.20;;;20.50;;
80567;SDS011;69922;45.656;25.586;2024-01-11T01:09:40;40.70;;;20.60;;
80567;SDS011;69922;45.656;25.586;2024-01-11T01:10:47;44.60;;;21.40;;
80567;SDS011;69922;45.656;25.586;2024-01-11T01:11:53;44.60;;;20.70;;
80567;SDS011;69922;45.656;25.586;2024-01-11T01:12:59;43.80;;;21.80;;
80567;SDS011;69922;45.656;25.586;2024-01-11T01:14:06;44.10;;;20.40;;
80567;SDS011;69922;45.656;25.586;2024-01-11T01:15:13;45.30;;;21.30;;
80567;SDS011;69922;45.656;25.586;2024-01-11T01:16:19;42.00;;;20.60;;
80567;SDS011;69922;45.656;25.586;2024-01-11T01:17:26;40.20;;;20.70;;
80567;SDS011;69922;45.656;25.586;2024-01-11T01:18:32;43.90;;;20.90;;
80567;SDS011;69922;45.656;25.586;2024-01-11T01:19:39;44.40;;;21.90;;
80567;SDS011;69922;45.656;25.586;2024-01-11T01:20:45;45.20;;;21.50;;
80567;SDS011;69922;45.656;25.586;2024-01-11T01:21:52;47.30;;;22.50;;
80567;SDS011;69922;45.656;25.586;2024-01-11T01:22:58;48.10;;;24.20;;
80567;SDS011;69922;45.656;25.586;2024-01-11T01:24:06;47.90;;;21.80;;
80567;SDS011;69922;45.656;25.586;2024-01-11T01:25:14;44.70;;;21.50;;
80567;SDS011;69922;45.656;25.586;2024-01-11T01:26:20;43.10;;;22.00;;
80567;SDS011;69922;45.656;25.586;2024-01-11T01:27:27;43.00;;;20.70;;
80567;SDS011;69922;45.656;25.586;2024-01-11T01:28:33;42.80;;;23.20;;
80567;SDS011;69922;45.656;25.586;2024-01-11T01:29:40;47.90;;;23.00;;
80567;SDS011;69922;45.656;25.586;2024-01-11T01:30:46;50.10;;;22.60;;
80567;SDS011;69922;45.656;25.586;2024-01-11T01:31:53;45.30;;;21.90;;
80567;SDS011;69922;45.656;25.586;2024-01-11T01:33:00;44.10;;;21.50;;
80567;SDS011;69922;45.656;25.586;2024-01-11T01:34:06;49.60;;;22.60;;
80567;SDS011;69922;45.656;25.586;2024-01-11T01:35:13;42.60;;;21.20;;
80567;SDS011;69922;45.656;25.586;2024-01-11T01:36:20;45.70;;;21.00;;
80567;SDS011;69922;45.656;25.586;2024-01-11T01:37:26;40.30;;;20.10;;
80567;SDS011;69922;45.656;25.586;2024-01-11T01:38:33;43.40;;;21.70;;
80567;SDS011;69922;45.656;25.586;2024-01-11T01:39:39;41.80;;;21.80;;
80567;SDS011;69922;45.656;25.586;2024-01-11T01:40:46;46.90;;;21.90;;
80567;SDS011;69922;45.656;25.586;2024-01-11T01:41:53;47.50;;;22.30;;
80567;SDS011;69922;45.656;25.586;2024-01-11T01:42:59;42.90;;;21.40;;
80567;SDS011;69922;45.656;25.586;2024-01-11T01:44:10;45.40;;;21.60;;
80567;SDS011;69922;45.656;25.586;2024-01-11T01:45:17;42.40;;;22.60;;
80567;SDS011;69922;45.656;25.586;2024-01-11T01:46:23;44.60;;;24.30;;
80567;SDS011;69922;45.656;25.586;2024-01-11T01:47:32;41.90;;;20.90;;
80567;SDS011;69922;45.656;25.586;2024-01-11T01:48:39;40.80;;;20.70;;
80567;SDS011;69922;45.656;25.586;2024-01-11T01:49:46;35.20;;;19.00;;
80567;SDS011;69922;45.656;25.586;2024-01-11T01:50:54;37.00;;;19.40;;
80567;SDS011;69922;45.656;25.586;2024-01-11T01:52:02;41.00;;;20.10;;
80567;SDS011;69922;45.656;25.586;2024-01-11T01:53:10;40.00;;;21.00;;
80567;SDS011;69922;45.656;25.586;2024-01-11T01:54:17;37.70;;;19.00;;
80567;SDS011;69922;45.656;25.586;2024-01-11T01:55:24;37.60;;;18.30;;
80567;SDS011;69922;45.656;25.586;2024-01-11T01:56:32;40.20;;;18.60;;
80567;SDS011;69922;45.656;25.586;2024-01-11T01:57:39;39.60;;;19.00;;
80567;SDS011;69922;45.656;25.586;2024-01-11T01:58:48;34.20;;;17.90;;
80567;SDS011;69922;45.656;25.586;2024-01-11T01:59:56;37.80;;;17.30;;
80567;SDS011;69922;45.656;25.586;2024-01-11T02:01:03;40.00;;;19.30;;
80567;SDS011;69922;45.656;25.586;2024-01-11T02:02:14;36.90;;;18.60;;
80567;SDS011;69922;45.656;25.586;2024-01-11T02:03:20;41.80;;;20.20;;
80567;SDS011;69922;45.656;25.586;2024-01-11T02:04:28;47.10;;;20.80;;
80567;SDS011;69922;45.656;25.586;2024-01-11T02:05:34;41.10;;;20.50;;
80567;SDS011;69922;45.656;25.586;2024-01-11T02:06:42;40.60;;;20.00;;
80567;SDS011;69922;45.656;25.586;2024-01-11T02:07:52;43.70;;;21.10;;
80567;SDS011;69922;45.656;25.586;2024-01-11T02:09:00;46.50;;;21.60;;
80567;SDS011;69922;45.656;25.586;2024-01-11T02:10:09;46.20;;;25.10;;
80567;SDS011;69922;45.656;25.586;2024-01-11T02:11:16;43.80;;;23.00;;
80567;SDS011;69922;45.656;25.586;2024-01-11T02:12:23;44.10;;;23.60;;
80567;SDS011;69922;45.656;25.586;2024-01-11T02:13:29;46.60;;;22.20;;
80567;SDS011;69922;45.656;25.586;2024-01-11T02:14:38;47.10;;;22.70;;
80567;SDS011;69922;45.656;25.586;2024-01-11T02:15:45;48.20;;;23.80;;
80567;SDS011;69922;45.656;25.586;2024-01-11T02:16:51;45.10;;;21.60;;
80567;SDS011;69922;45.656;25.586;2024-01-11T02:17:58;49.00;;;21.70;;
80567;SDS011;69922;45.656;25.586;2024-01-11T02:19:04;46.40;;;21.80;;
80567;SDS011;69922;45.656;25.586;2024-01-11T02:20:13;41.90;;;20.80;;
80567;SDS011;69922;45.656;25.586;2024-01-11T02:21:20;45.20;;;20.80;;
80567;SDS011;69922;45.656;25.586;2024-01-11T02:22:29;62.20;;;27.20;;
80567;SDS011;69922;45.656;25.586;2024-01-11T02:23:39;81.20;;;29.90;;
80567;SDS011;69922;45.656;25.586;2024-01-11T02:24:51;64.50;;;25.20;;
80567;SDS011;69922;45.656;25.586;2024-01-11T02:25:57;46.20;;;21.50;;
80567;SDS011;69922;45.656;25.586;2024-01-11T02:27:04;47.50;;;24.00;;
80567;SDS011;69922;45.656;25.586;2024-01-11T02:28:10;46.10;;;21.60;;
80567;SDS011;69922;45.656;25.586;2024-01-11T02:29:17;42.00;;;21.30;;
80567;SDS011;69922;45.656;25.586;2024-01-11T02:30:23;47.60;;;22.20;;
80567;SDS011;69922;45.656;25.586;2024-01-11T02:31:30;45.50;;;21.50;;
80567;SDS011;69922;45.656;25.586;2024-01-11T02:32:36;39.40;;;20.60;;
80567;SDS011;69922;45.656;25.586;2024-01-11T02:33:43;42.30;;;20.00;;
80567;SDS011;69922;45.656;25.586;2024-01-11T02:34:50;42.20;;;19.60;;
80567;SDS011;69922;45.656;25.586;2024-01-11T02:35:56;36.00;;;19.70;;
80567;SDS011;69922;45.656;25.586;2024-01-11T02:37:03;39.80;;;20.50;;
80567;SDS011;69922;45.656;25.586;2024-01-11T02:38:10;38.70;;;19.20;;
80567;SDS011;69922;45.656;25.586;2024-01-11T02:39:17;39.70;;;19.00;;
80567;SDS011;69922;45.656;25.586;2024-01-11T02:40:26;36.30;;;20.20;;
80567;SDS011;69922;45.656;25.586;2024-01-11T02:41:33;37.90;;;19.10;;
80567;SDS011;69922;45.656;25.586;2024-01-11T02:42:41;38.60;;;19.40;;
80567;SDS011;69922;45.656;25.586;2024-01-11T02:43:48;42.70;;;20.00;;
80567;SDS011;69922;45.656;25.586;2024-01-11T02:44:56;44.50;;;19.70;;
80567;SDS011;69922;45.656;25.586;2024-01-11T02:46:03;39.30;;;18.90;;
80567;SDS011;69922;45.656;25.586;2024-01-11T02:47:10;43.60;;;20.90;;
80567;SDS011;69922;45.656;25.586;2024-01-11T02:48:16;38.60;;;19.70;;
80567;SDS011;69922;45.656;25.586;2024-01-11T02:49:23;40.80;;;21.00;;
80567;SDS011;69922;45.656;25.586;2024-01-11T02:50:29;39.20;;;19.10;;
80567;SDS011;69922;45.656;25.586;2024-01-11T02:51:36;39.20;;;19.20;;
80567;SDS011;69922;45.656;25.586;2024-01-11T02:52:42;38.40;;;19.10;;
80567;SDS011;69922;45.656;25.586;2024-01-11T02:53:49;41.00;;;19.60;;
80567;SDS011;69922;45.656;25.586;2024-01-11T02:54:55;41.10;;;20.40;;
80567;SDS011;69922;45.656;25.586;2024-01-11T02:56:02;40.00;;;19.30;;
80567;SDS011;69922;45.656;25.586;2024-01-11T02:57:09;38.50;;;19.50;;
80567;SDS011;69922;45.656;25.586;2024-01-11T02:58:15;40.10;;;19.40;;
80567;SDS011;69922;45.656;25.586;2024-01-11T02:59:21;40.00;;;22.90;;
80567;SDS011;69922;45.656;25.586;2024-01-11T03:00:28;41.90;;;19.60;;
80567;SDS011;69922;45.656;25.586;2024-01-11T03:01:35;46.00;;;21.00;;
80567;SDS011;69922;45.656;25.586;2024-01-11T03:02:41;43.80;;;21.50;;
80567;SDS011;69922;45.656;25.586;2024-01-11T03:03:48;42.80;;;21.10;;
80567;SDS011;69922;45.656;25.586;2024-01-11T03:04:56;38.60;;;19.50;;
80567;SDS011;69922;45.656;25.586;2024-01-11T03:06:02;41.90;;;20.10;;
80567;SDS011;69922;45.656;25.586;2024-01-11T03:07:10;44.20;;;20.40;;
80567;SDS011;69922;45.656;25.586;2024-01-11T03:08:16;44.20;;;19.30;;
80567;SDS011;69922;45.656;25.586;2024-01-11T03:09:23;46.60;;;21.50;;
80567;SDS011;69922;45.656;25.586;2024-01-11T03:10:29;46.60;;;23.00;;
80567;SDS011;69922;45.656;25.586;2024-01-11T03:11:36;57.30;;;27.50;;
80567;SDS011;69922;45.656;25.586;2024-01-11T03:12:43;67.00;;;32.30;;
80567;SDS011;69922;45.656;25.586;2024-01-11T03:13:49;65.70;;;29.30;;
80567;SDS011;69922;45.656;25.586;2024-01-11T03:14:56;66.20;;;30.90;;
80567;SDS011;69922;45.656;25.586;2024-01-11T03:16:02;72.30;;;30.80;;
80567;SDS011;69922;45.656;25.586;2024-01-11T03:17:10;62.40;;;27.90;;
80567;SDS011;69922;45.656;25.586;2024-01-11T03:18:16;57.70;;;27.30;;
80567;SDS011;69922;45.656;25.586;2024-01-11T03:19:23;50.00;;;22.90;;
80567;SDS011;69922;45.656;25.586;2024-01-11T03:20:30;40.70;;;19.60;;
80567;SDS011;69922;45.656;25.586;2024-01-11T03:21:37;38.60;;;18.50;;
80567;SDS011;69922;45.656;25.586;2024-01-11T03:22:47;39.00;;;19.90;;
80567;SDS011;69922;45.656;25.586;2024-01-11T03:23:53;39.60;;;19.10;;
80567;SDS011;69922;45.656;25.586;2024-01-11T03:24:59;44.70;;;19.70;;
80567;SDS011;69922;45.656;25.586;2024-01-11T03:26:13;40.10;;;21.10;;
80567;SDS011;69922;45.656;25.586;2024-01-11T03:27:20;43.40;;;20.00;;
80567;SDS011;69922;45.656;25.586;2024-01-11T03:28:26;39.60;;;19.50;;
80567;SDS011;69922;45.656;25.586;2024-01-11T03:29:32;40.20;;;19.70;;
80567;SDS011;69922;45.656;25.586;2024-01-11T03:30:39;36.70;;;20.20;;
80567;SDS011;69922;45.656;25.586;2024-01-11T03:31:46;46.10;;;22.90;;
80567;SDS011;69922;45.656;25.586;2024-01-11T03:32:52;47.70;;;21.70;;
80567;SDS011;69922;45.656;25.586;2024-01-11T03:33:58;41.00;;;20.80;;
80567;SDS011;69922;45.656;25.586;2024-01-11T03:35:07;44.50;;;20.10;;
80567;SDS011;69922;45.656;25.586;2024-01-11T03:36:13;44.20;;;19.60;;
80567;SDS011;69922;45.656;25.586;2024-01-11T03:37:20;41.30;;;19.50;;
80567;SDS011;69922;45.656;25.586;2024-01-11T03:38:26;51.90;;;21.50;;
80567;SDS011;69922;45.656;25.586;2024-01-11T03:39:32;45.00;;;20.80;;
80567;SDS011;69922;45.656;25.586;2024-01-11T03:40:39;39.00;;;19.90;;
80567;SDS011;69922;45.656;25.586;2024-01-11T03:41:46;52.20;;;24.10;;
80567;SDS011;69922;45.656;25.586;2024-01-11T03:42:53;50.90;;;23.80;;
80567;SDS011;69922;45.656;25.586;2024-01-11T03:44:00;51.10;;;21.60;;
80567;SDS011;69922;45.656;25.586;2024-01-11T03:45:07;47.60;;;22.10;;
80567;SDS011;69922;45.656;25.586;2024-01-11T03:46:14;45.90;;;20.90;;
80567;SDS011;69922;45.656;25.586;2024-01-11T03:47:20;43.10;;;21.70;;
80567;SDS011;69922;45.656;25.586;2024-01-11T03:48:27;42.10;;;21.50;;
80567;SDS011;69922;45.656;25.586;2024-01-11T03:49:34;47.10;;;23.90;;
80567;SDS011;69922;45.656;25.586;2024-01-11T03:50:41;40.40;;;21.10;;
80567;SDS011;69922;45.656;25.586;2024-01-11T03:51:48;44.50;;;22.40;;
80567;SDS011;69922;45.656;25.586;2024-01-11T03:52:54;48.00;;;23.40;;
80567;SDS011;69922;45.656;25.586;2024-01-11T03:54:00;45.70;;;21.00;;
80567;SDS011;69922;45.656;25.586;2024-01-11T03:55:08;47.30;;;21.20;;
80567;SDS011;69922;45.656;25.586;2024-01-11T03:56:14;46.70;;;23.00;;
80567;SDS011;69922;45.656;25.586;2024-01-11T03:57:21;46.20;;;22.40;;
80567;SDS011;69922;45.656;25.586;2024-01-11T03:58:27;43.10;;;21.30;;
80567;SDS011;69922;45.656;25.586;2024-01-11T03:59:34;46.50;;;21.50;;
80567;SDS011;69922;45.656;25.586;2024-01-11T04:00:40;45.70;;;21.80;;
80567;SDS011;69922;45.656;25.586;2024-01-11T04:01:47;44.70;;;20.50;;
80567;SDS011;69922;45.656;25.586;2024-01-11T04:02:53;48.20;;;20.90;;
80567;SDS011;69922;45.656;25.586;2024-01-11T04:04:00;41.50;;;20.40;;
80567;SDS011;69922;45.656;25.586;2024-01-11T04:05:08;43.30;;;22.20;;
80567;SDS011;69922;45.656;25.586;2024-01-11T04:06:20;41.50;;;21.00;;
80567;SDS011;69922;45.656;25.586;2024-01-11T04:07:28;46.10;;;21.10;;
80567;SDS011;69922;45.656;25.586;2024-01-11T04:08:34;38.90;;;20.30;;
80567;SDS011;69922;45.656;25.586;2024-01-11T04:09:41;38.20;;;20.60;;
80567;SDS011;69922;45.656;25.586;2024-01-11T04:10:48;39.10;;;21.00;;
80567;SDS011;69922;45.656;25.586;2024-01-11T04:11:54;44.00;;;22.10;;
80567;SDS011;69922;45.656;25.586;2024-01-11T04:13:00;42.90;;;19.60;;
80567;SDS011;69922;45.656;25.586;2024-01-11T04:14:07;40.20;;;19.90;;
80567;SDS011;69922;45.656;25.586;2024-01-11T04:15:14;42.50;;;20.80;;
80567;SDS011;69922;45.656;25.586;2024-01-11T04:16:20;50.80;;;21.90;;
80567;SDS011;69922;45.656;25.586;2024-01-11T04:17:27;40.90;;;20.50;;
80567;SDS011;69922;45.656;25.586;2024-01-11T04:18:33;47.80;;;21.70;;
80567;SDS011;69922;45.656;25.586;2024-01-11T04:19:40;40.30;;;20.60;;
80567;SDS011;69922;45.656;25.586;2024-01-11T04:20:47;45.90;;;21.30;;
80567;SDS011;69922;45.656;25.586;2024-01-11T04:21:53;46.10;;;19.70;;
80567;SDS011;69922;45.656;25.586;2024-01-11T04:22:59;37.70;;;19.90;;
80567;SDS011;69922;45.656;25.586;2024-01-11T04:24:06;39.30;;;18.90;;
80567;SDS011;69922;45.656;25.586;2024-01-11T04:25:13;42.60;;;18.50;;
80567;SDS011;69922;45.656;25.586;2024-01-11T04:26:19;36.70;;;18.70;;
80567;SDS011;69922;45.656;25.586;2024-01-11T04:27:26;35.20;;;18.20;;
80567;SDS011;69922;45.656;25.586;2024-01-11T04:28:32;39.00;;;19.00;;
80567;SDS011;69922;45.656;25.586;2024-01-11T04:29:41;40.10;;;20.20;;
80567;SDS011;69922;45.656;25.586;2024-01-11T04:30:48;38.10;;;19.60;;
80567;SDS011;69922;45.656;25.586;2024-01-11T04:31:54;50.20;;;23.50;;
80567;SDS011;69922;45.656;25.586;2024-01-11T04:33:01;48.70;;;23.50;;
80567;SDS011;69922;45.656;25.586;2024-01-11T04:34:08;50.30;;;24.20;;
80567;SDS011;69922;45.656;25.586;2024-01-11T04:35:15;50.50;;;27.60;;
80567;SDS011;69922;45.656;25.586;2024-01-11T04:36:21;56.30;;;27.70;;
80567;SDS011;69922;45.656;25.586;2024-01-11T04:37:28;57.90;;;30.60;;
80567;SDS011;69922;45.656;25.586;2024-01-11T04:38:35;45.10;;;24.40;;
80567;SDS011;69922;45.656;25.586;2024-01-11T04:39:44;51.50;;;24.90;;
80567;SDS011;69922;45.656;25.586;2024-01-11T04:40:51;56.00;;;25.30;;
80567;SDS011;69922;45.656;25.586;2024-01-11T04:41:57;53.70;;;25.90;;
80567;SDS011;69922;45.656;25.586;2024-01-11T04:43:05;68.40;;;29.40;;
80567;SDS011;69922;45.656;25.586;2024-01-11T04:44:13;62.60;;;29.40;;
80567;SDS011;69922;45.656;25.586;2024-01-11T04:45:20;64.10;;;32.60;;
80567;SDS011;69922;45.656;25.586;2024-01-11T04:46:26;67.00;;;29.30;;
80567;SDS011;69922;45.656;25.586;2024-01-11T04:47:32;61.80;;;30.10;;
80567;SDS011;69922;45.656;25.586;2024-01-11T04:48:39;55.60;;;26.10;;
80567;SDS011;69922;45.656;25.586;2024-01-11T04:49:46;62.00;;;27.90;;
80567;SDS011;69922;45.656;25.586;2024-01-11T04:50:52;64.20;;;29.20;;
80567;SDS011;69922;45.656;25.586;2024-01-11T04:51:58;62.50;;;30.70;;
80567;SDS011;69922;45.656;25.586;2024-01-11T04:53:05;61.50;;;30.10;;
80567;SDS011;69922;45.656;25.586;2024-01-11T04:54:11;57.50;;;27.30;;
80567;SDS011;69922;45.656;25.586;2024-01-11T04:55:18;59.60;;;28.70;;
80567;SDS011;69922;45.656;25.586;2024-01-11T04:56:24;57.20;;;28.90;;
80567;SDS011;69922;45.656;25.586;2024-01-11T04:57:31;57.80;;;29.20;;
80567;SDS011;69922;45.656;25.586;2024-01-11T04:58:39;51.20;;;24.50;;
80567;SDS011;69922;45.656;25.586;2024-01-11T04:59:46;59.50;;;30.10;;
80567;SDS011;69922;45.656;25.586;2024-01-11T05:00:52;63.50;;;31.40;;
80567;SDS011;69922;45.656;25.586;2024-01-11T05:01:59;63.40;;;30.20;;
80567;SDS011;69922;45.656;25.586;2024-01-11T05:03:06;59.00;;;29.10;;
80567;SDS011;69922;45.656;25.586;2024-01-11T05:04:12;59.80;;;29.60;;
80567;SDS011;69922;45.656;25.586;2024-01-11T05:05:19;54.00;;;27.50;;
80567;SDS011;69922;45.656;25.586;2024-01-11T05:06:25;60.10;;;29.30;;
80567;SDS011;69922;45.656;25.586;2024-01-11T05:07:32;52.20;;;27.30;;
80567;SDS011;69922;45.656;25.586;2024-01-11T05:08:39;48.10;;;23.80;;
80567;SDS011;69922;45.656;25.586;2024-01-11T05:09:46;50.30;;;25.50;;
80567;SDS011;69922;45.656;25.586;2024-01-11T05:10:52;46.30;;;23.60;;
80567;SDS011;69922;45.656;25.586;2024-01-11T05:11:59;54.30;;;26.20;;
80567;SDS011;69922;45.656;25.586;2024-01-11T05:13:06;55.20;;;25.90;;
80567;SDS011;69922;45.656;25.586;2024-01-11T05:14:12;50.90;;;24.70;;
80567;SDS011;69922;45.656;25.586;2024-01-11T05:15:19;57.30;;;25.80;;
80567;SDS011;69922;45.656;25.586;2024-01-11T05:16:26;52.50;;;23.50;;
80567;SDS011;69922;45.656;25.586;2024-01-11T05:17:33;55.00;;;23.40;;
80567;SDS011;69922;45.656;25.586;2024-01-11T05:18:40;52.20;;;25.00;;
80567;SDS011;69922;45.656;25.586;2024-01-11T05:19:46;50.00;;;24.10;;
80567;SDS011;69922;45.656;25.586;2024-01-11T05:20:53;48.50;;;23.70;;
80567;SDS011;69922;45.656;25.586;2024-01-11T05:21:59;46.60;;;23.70;;
80567;SDS011;69922;45.656;25.586;2024-01-11T05:23:05;53.40;;;26.80;;
80567;SDS011;69922;45.656;25.586;2024-01-11T05:24:12;47.60;;;25.00;;
80567;SDS011;69922;45.656;25.586;2024-01-11T05:25:19;53.20;;;25.60;;
80567;SDS011;69922;45.656;25.586;2024-01-11T05:26:25;58.30;;;26.80;;
80567;SDS011;69922;45.656;25.586;2024-01-11T05:27:31;49.80;;;25.10;;
80567;SDS011;69922;45.656;25.586;2024-01-11T05:28:38;93.70;;;43.50;;
80567;SDS011;69922;45.656;25.586;2024-01-11T05:29:45;61.30;;;31.70;;
80567;SDS011;69922;45.656;25.586;2024-01-11T05:30:52;50.40;;;26.00;;
80567;SDS011;69922;45.656;25.586;2024-01-11T05:31:59;59.50;;;26.80;;
80567;SDS011;69922;45.656;25.586;2024-01-11T05:33:06;53.50;;;25.20;;
80567;SDS011;69922;45.656;25.586;2024-01-11T05:34:12;60.30;;;25.80;;
80567;SDS011;69922;45.656;25.586;2024-01-11T05:35:19;48.40;;;24.70;;
80567;SDS011;69922;45.656;25.586;2024-01-11T05:36:28;60.10;;;29.00;;
80567;SDS011;69922;45.656;25.586;2024-01-11T05:37:35;52.00;;;25.10;;
80567;SDS011;69922;45.656;25.586;2024-01-11T05:38:41;56.50;;;27.30;;
80567;SDS011;69922;45.656;25.586;2024-01-11T05:39:49;53.60;;;25.50;;
80567;SDS011;69922;45.656;25.586;2024-01-11T05:40:56;59.40;;;26.50;;
80567;SDS011;69922;45.656;25.586;2024-01-11T05:42:02;56.10;;;26.30;;
80567;SDS011;69922;45.656;25.586;2024-01-11T05:43:10;49.00;;;23.90;;
80567;SDS011;69922;45.656;25.586;2024-01-11T05:44:17;63.20;;;27.20;;
80567;SDS011;69922;45.656;25.586;2024-01-11T05:45:24;71.50;;;32.20;;
80567;SDS011;69922;45.656;25.586;2024-01-11T05:46:49;62.10;;;29.90;;
80567;SDS011;69922;45.656;25.586;2024-01-11T05:47:55;74.10;;;31.90;;
80567;SDS011;69922;45.656;25.586;2024-01-11T05:49:02;66.40;;;29.80;;
80567;SDS011;69922;45.656;25.586;2024-01-11T05:50:09;56.70;;;27.70;;
80567;SDS011;69922;45.656;25.586;2024-01-11T05:51:17;55.60;;;26.20;;
80567;SDS011;69922;45.656;25.586;2024-01-11T05:52:23;64.40;;;29.20;;
80567;SDS011;69922;45.656;25.586;2024-01-11T05:53:30;55.80;;;28.30;;
80567;SDS011;69922;45.656;25.586;2024-01-11T05:54:40;64.40;;;29.00;;
80567;SDS011;69922;45.656;25.586;2024-01-11T05:55:46;57.10;;;29.60;;
80567;SDS011;69922;45.656;25.586;2024-01-11T05:56:56;57.40;;;29.30;;
80567;SDS011;69922;45.656;25.586;2024-01-11T05:58:03;62.10;;;30.90;;
80567;SDS011;69922;45.656;25.586;2024-01-11T05:59:10;71.60;;;32.30;;
80567;SDS011;69922;45.656;25.586;2024-01-11T06:00:17;62.20;;;29.10;;
80567;SDS011;69922;45.656;25.586;2024-01-11T06:01:24;54.80;;;27.30;;
80567;SDS011;69922;45.656;25.586;2024-01-11T06:02:30;62.30;;;30.20;;
80567;SDS011;69922;45.656;25.586;2024-01-11T06:03:37;56.40;;;28.20;;
80567;SDS011;69922;45.656;25.586;2024-01-11T06:04:44;55.80;;;28.90;;
80567;SDS011;69922;45.656;25.586;2024-01-11T06:05:52;56.00;;;29.60;;
80567;SDS011;69922;45.656;25.586;2024-01-11T06:06:59;65.50;;;30.60;;
80567;SDS011;69922;45.656;25.586;2024-01-11T06:08:06;60.20;;;30.00;;
80567;SDS011;69922;45.656;25.586;2024-01-11T06:09:12;60.90;;;30.30;;
80567;SDS011;69922;45.656;25.586;2024-01-11T06:10:19;61.80;;;27.80;;
80567;SDS011;69922;45.656;25.586;2024-01-11T06:11:25;54.00;;;28.20;;
80567;SDS011;69922;45.656;25.586;2024-01-11T06:12:32;55.30;;;28.00;;
80567;SDS011;69922;45.656;25.586;2024-01-11T06:13:38;61.80;;;30.70;;
80567;SDS011;69922;45.656;25.586;2024-01-11T06:14:46;63.00;;;30.90;;
80567;SDS011;69922;45.656;25.586;2024-01-11T06:15:53;63.40;;;29.60;;
80567;SDS011;69922;45.656;25.586;2024-01-11T06:16:59;58.20;;;29.60;;
80567;SDS011;69922;45.656;25.586;2024-01-11T06:18:06;58.90;;;28.70;;
80567;SDS011;69922;45.656;25.586;2024-01-11T06:19:12;55.50;;;27.80;;
80567;SDS011;69922;45.656;25.586;2024-01-11T06:20:19;65.40;;;30.60;;
80567;SDS011;69922;45.656;25.586;2024-01-11T06:21:26;60.70;;;30.10;;
80567;SDS011;69922;45.656;25.586;2024-01-11T06:22:32;61.00;;;30.20;;
80567;SDS011;69922;45.656;25.586;2024-01-11T06:23:39;60.10;;;29.30;;
80567;SDS011;69922;45.656;25.586;2024-01-11T06:24:46;53.40;;;29.60;;
80567;SDS011;69922;45.656;25.586;2024-01-11T06:25:53;67.50;;;30.30;;